sensor_id;sensor_type;location;lat;lon;timestamp;P1;durP1;ratioP1;P2;durP2;ratioP2
4313;SDS011;2170;48.794;9.182;2024-01-30T00:01:16;12.00;;;9.90;;
4313;SDS011;2170;48.794;9.182;2024-01-30T00:03:47;11.93;;;10.70;;
4313;SDS011;2170;48.794;9.182;2024-01-30T00:06:18;12.37;;;10.33;;
4313;SDS011;2170;48.794;9.182;2024-01-30T00:08:51;12.27;;;9.93;;
4313;SDS011;2170;48.794;9.182;2024-01-30T00:11:24;11.77;;;10.50;;
4313;SDS011;2170;48.794;9.182;2024-01-30T00:13:54;12.60;;;10.63;;
4313;SDS011;2170;48.794;9.182;2024-01-30T00:16:23;14.77;;;11.80;;
4313;SDS011;2170;48.794;9.182;2024-01-30T00:18:57;13.57;;;12.10;;
4313;SDS011;2170;48.794;9.182;2024-01-30T00:21:27;12.57;;;11.27;;
4313;SDS011;2170;48.794;9.182;2024-01-30T00:23:56;12.47;;;11.27;;
4313;SDS011;2170;48.794;9.182;2024-01-30T00:26:27;11.80;;;10.70;;
4313;SDS011;2170;48.794;9.182;2024-01-30T00:29:00;13.60;;;11.47;;
4313;SDS011;2170;48.794;9.182;2024-01-30T00:31:30;15.33;;;12.50;;
4313;SDS011;2170;48.794;9.182;2024-01-30T00:33:59;14.33;;;12.93;;
4313;SDS011;2170;48.794;9.182;2024-01-30T00:36:30;15.37;;;11.87;;
4313;SDS011;2170;48.794;9.182;2024-01-30T00:39:02;13.77;;;12.23;;
4313;SDS011;2170;48.794;9.182;2024-01-30T00:41:35;13.97;;;12.60;;
4313;SDS011;2170;48.794;9.182;2024-01-30T00:44:11;16.00;;;13.37;;
4313;SDS011;2170;48.794;9.182;2024-01-30T00:46:38;14.33;;;12.83;;
4313;SDS011;2170;48.794;9.182;2024-01-30T00:49:11;14.60;;;12.40;;
4313;SDS011;2170;48.794;9.182;2024-01-30T00:51:39;13.37;;;11.97;;
4313;SDS011;2170;48.794;9.182;2024-01-30T00:54:08;18.97;;;13.37;;
4313;SDS011;2170;48.794;9.182;2024-01-30T00:56:38;14.00;;;11.93;;
4313;SDS011;2170;48.794;9.182;2024-01-30T00:59:05;13.83;;;12.23;;
4313;SDS011;2170;48.794;9.182;2024-01-30T01:01:33;13.77;;;12.30;;
4313;SDS011;2170;48.794;9.182;2024-01-30T01:04:01;14.10;;;12.30;;
4313;SDS011;2170;48.794;9.182;2024-01-30T01:06:32;14.87;;;13.00;;
4313;SDS011;2170;48.794;9.182;2024-01-30T01:09:00;14.83;;;13.43;;
4313;SDS011;2170;48.794;9.182;2024-01-30T01:11:31;14.40;;;12.70;;
4313;SDS011;2170;48.794;9.182;2024-01-30T01:13:59;14.17;;;12.77;;
4313;SDS011;2170;48.794;9.182;2024-01-30T01:16:26;16.47;;;12.90;;
4313;SDS011;2170;48.794;9.182;2024-01-30T01:18:57;14.07;;;12.67;;
4313;SDS011;2170;48.794;9.182;2024-01-30T01:21:28;14.50;;;12.63;;
4313;SDS011;2170;48.794;9.182;2024-01-30T01:23:56;14.37;;;12.87;;
4313;SDS011;2170;48.794;9.182;2024-01-30T01:26:24;14.60;;;12.97;;
4313;SDS011;2170;48.794;9.182;2024-01-30T01:28:59;13.47;;;12.17;;
4313;SDS011;2170;48.794;9.182;2024-01-30T01:31:29;12.00;;;10.90;;
4313;SDS011;2170;48.794;9.182;2024-01-30T01:33:57;13.90;;;11.97;;
4313;SDS011;2170;48.794;9.182;2024-01-30T01:36:25;15.10;;;11.80;;
4313;SDS011;2170;48.794;9.182;2024-01-30T01:38:52;14.73;;;12.97;;
4313;SDS011;2170;48.794;9.182;2024-01-30T01:41:20;13.80;;;12.27;;
4313;SDS011;2170;48.794;9.182;2024-01-30T01:43:48;13.40;;;12.10;;
4313;SDS011;2170;48.794;9.182;2024-01-30T01:46:18;11.63;;;10.53;;
4313;SDS011;2170;48.794;9.182;2024-01-30T01:48:45;12.47;;;10.60;;
4313;SDS011;2170;48.794;9.182;2024-01-30T01:51:22;13.70;;;11.57;;
4313;SDS011;2170;48.794;9.182;2024-01-30T01:53:54;14.17;;;12.17;;
4313;SDS011;2170;48.794;9.182;2024-01-30T01:56:25;14.23;;;12.73;;
4313;SDS011;2170;48.794;9.182;2024-01-30T01:58:55;14.07;;;10.80;;
4313;SDS011;2170;48.794;9.182;2024-01-30T02:01:33;16.00;;;12.13;;
4313;SDS011;2170;48.794;9.182;2024-01-30T02:04:03;17.80;;;11.80;;
4313;SDS011;2170;48.794;9.182;2024-01-30T02:06:36;12.80;;;11.47;;
4313;SDS011;2170;48.794;9.182;2024-01-30T02:09:05;13.90;;;12.47;;
4313;SDS011;2170;48.794;9.182;2024-01-30T02:11:34;16.03;;;12.03;;
4313;SDS011;2170;48.794;9.182;2024-01-30T02:14:02;12.90;;;11.60;;
4313;SDS011;2170;48.794;9.182;2024-01-30T02:16:30;13.93;;;12.50;;
4313;SDS011;2170;48.794;9.182;2024-01-30T02:18:59;14.57;;;11.67;;
4313;SDS011;2170;48.794;9.182;2024-01-30T02:21:28;12.40;;;10.93;;
4313;SDS011;2170;48.794;9.182;2024-01-30T02:23:56;14.20;;;12.80;;
4313;SDS011;2170;48.794;9.182;2024-01-30T02:26:35;15.87;;;14.20;;
4313;SDS011;2170;48.794;9.182;2024-01-30T02:29:05;16.57;;;13.80;;
4313;SDS011;2170;48.794;9.182;2024-01-30T02:31:35;15.00;;;13.50;;
4313;SDS011;2170;48.794;9.182;2024-01-30T02:34:03;15.67;;;14.07;;
4313;SDS011;2170;48.794;9.182;2024-01-30T02:36:32;14.83;;;13.13;;
4313;SDS011;2170;48.794;9.182;2024-01-30T02:39:01;14.03;;;12.43;;
4313;SDS011;2170;48.794;9.182;2024-01-30T02:41:29;20.00;;;18.30;;
4313;SDS011;2170;48.794;9.182;2024-01-30T02:43:56;28.37;;;25.70;;
4313;SDS011;2170;48.794;9.182;2024-01-30T02:46:27;25.37;;;22.83;;
4313;SDS011;2170;48.794;9.182;2024-01-30T02:48:55;21.53;;;19.60;;
4313;SDS011;2170;48.794;9.182;2024-01-30T02:51:24;19.70;;;17.90;;
4313;SDS011;2170;48.794;9.182;2024-01-30T02:53:53;21.97;;;18.07;;
4313;SDS011;2170;48.794;9.182;2024-01-30T02:56:23;19.77;;;17.93;;
4313;SDS011;2170;48.794;9.182;2024-01-30T02:58:52;24.87;;;22.67;;
4313;SDS011;2170;48.794;9.182;2024-01-30T03:01:20;24.60;;;22.20;;
4313;SDS011;2170;48.794;9.182;2024-01-30T03:03:49;27.57;;;24.97;;
4313;SDS011;2170;48.794;9.182;2024-01-30T03:06:19;27.93;;;25.43;;
4313;SDS011;2170;48.794;9.182;2024-01-30T03:08:48;27.57;;;25.07;;
4313;SDS011;2170;48.794;9.182;2024-01-30T03:11:17;23.57;;;21.30;;
4313;SDS011;2170;48.794;9.182;2024-01-30T03:13:44;21.13;;;17.70;;
4313;SDS011;2170;48.794;9.182;2024-01-30T03:16:12;17.60;;;15.50;;
4313;SDS011;2170;48.794;9.182;2024-01-30T03:18:40;16.03;;;14.30;;
4313;SDS011;2170;48.794;9.182;2024-01-30T03:21:07;16.10;;;14.10;;
4313;SDS011;2170;48.794;9.182;2024-01-30T03:23:35;16.47;;;13.57;;
4313;SDS011;2170;48.794;9.182;2024-01-30T03:26:03;14.20;;;12.80;;
4313;SDS011;2170;48.794;9.182;2024-01-30T03:28:33;14.43;;;12.93;;
4313;SDS011;2170;48.794;9.182;2024-01-30T03:31:03;14.70;;;12.70;;
4313;SDS011;2170;48.794;9.182;2024-01-30T03:33:31;16.03;;;13.90;;
4313;SDS011;2170;48.794;9.182;2024-01-30T03:36:02;14.17;;;12.67;;
4313;SDS011;2170;48.794;9.182;2024-01-30T03:38:31;13.50;;;12.13;;
4313;SDS011;2170;48.794;9.182;2024-01-30T03:40:59;13.27;;;12.00;;
4313;SDS011;2170;48.794;9.182;2024-01-30T03:43:29;13.40;;;12.10;;
4313;SDS011;2170;48.794;9.182;2024-01-30T03:45:58;14.13;;;12.80;;
4313;SDS011;2170;48.794;9.182;2024-01-30T03:48:28;14.20;;;12.90;;
4313;SDS011;2170;48.794;9.182;2024-01-30T03:50:57;14.87;;;12.90;;
4313;SDS011;2170;48.794;9.182;2024-01-30T03:53:25;13.40;;;12.10;;
4313;SDS011;2170;48.794;9.182;2024-01-30T03:55:56;15.67;;;11.87;;
4313;SDS011;2170;48.794;9.182;2024-01-30T03:58:24;13.50;;;12.20;;
4313;SDS011;2170;48.794;9.182;2024-01-30T04:00:52;13.20;;;11.90;;
4313;SDS011;2170;48.794;9.182;2024-01-30T04:03:21;14.83;;;13.30;;
4313;SDS011;2170;48.794;9.182;2024-01-30T04:05:51;14.10;;;12.70;;
4313;SDS011;2170;48.794;9.182;2024-01-30T04:08:22;12.93;;;11.70;;
4313;SDS011;2170;48.794;9.182;2024-01-30T04:11:05;13.17;;;11.87;;
4313;SDS011;2170;48.794;9.182;2024-01-30T04:14:18;14.73;;;13.10;;
4313;SDS011;2170;48.794;9.182;2024-01-30T04:16:50;13.93;;;12.67;;
4313;SDS011;2170;48.794;9.182;2024-01-30T04:19:22;12.67;;;11.43;;
4313;SDS011;2170;48.794;9.182;2024-01-30T04:21:50;13.33;;;11.70;;
4313;SDS011;2170;48.794;9.182;2024-01-30T04:24:17;16.37;;;12.50;;
4313;SDS011;2170;48.794;9.182;2024-01-30T04:26:48;13.03;;;11.73;;
4313;SDS011;2170;48.794;9.182;2024-01-30T04:29:18;14.07;;;11.90;;
4313;SDS011;2170;48.794;9.182;2024-01-30T04:31:48;13.33;;;11.90;;
4313;SDS011;2170;48.794;9.182;2024-01-30T04:34:16;12.97;;;11.77;;
4313;SDS011;2170;48.794;9.182;2024-01-30T04:36:47;13.30;;;11.93;;
4313;SDS011;2170;48.794;9.182;2024-01-30T04:39:17;13.57;;;12.20;;
4313;SDS011;2170;48.794;9.182;2024-01-30T04:41:44;33.30;;;25.43;;
4313;SDS011;2170;48.794;9.182;2024-01-30T04:44:12;31.03;;;25.73;;
4313;SDS011;2170;48.794;9.182;2024-01-30T04:46:40;20.97;;;17.30;;
4313;SDS011;2170;48.794;9.182;2024-01-30T04:49:08;15.97;;;13.50;;
4313;SDS011;2170;48.794;9.182;2024-01-30T04:51:35;12.83;;;11.53;;
4313;SDS011;2170;48.794;9.182;2024-01-30T04:54:07;13.30;;;11.93;;
4313;SDS011;2170;48.794;9.182;2024-01-30T04:56:38;12.93;;;11.57;;
4313;SDS011;2170;48.794;9.182;2024-01-30T04:59:13;15.93;;;12.77;;
4313;SDS011;2170;48.794;9.182;2024-01-30T05:01:46;13.40;;;12.07;;
4313;SDS011;2170;48.794;9.182;2024-01-30T05:04:14;15.60;;;12.27;;
4313;SDS011;2170;48.794;9.182;2024-01-30T05:06:43;14.23;;;12.90;;
4313;SDS011;2170;48.794;9.182;2024-01-30T05:09:15;13.50;;;12.20;;
4313;SDS011;2170;48.794;9.182;2024-01-30T05:11:47;14.17;;;11.50;;
4313;SDS011;2170;48.794;9.182;2024-01-30T05:14:15;16.37;;;13.20;;
4313;SDS011;2170;48.794;9.182;2024-01-30T05:16:45;19.67;;;16.67;;
4313;SDS011;2170;48.794;9.182;2024-01-30T05:19:13;18.10;;;15.27;;
4313;SDS011;2170;48.794;9.182;2024-01-30T05:21:44;15.27;;;13.83;;
4313;SDS011;2170;48.794;9.182;2024-01-30T05:24:21;14.37;;;12.67;;
4313;SDS011;2170;48.794;9.182;2024-01-30T05:26:49;16.73;;;13.23;;
4313;SDS011;2170;48.794;9.182;2024-01-30T05:29:16;15.33;;;12.77;;
4313;SDS011;2170;48.794;9.182;2024-01-30T05:31:47;13.40;;;12.00;;
4313;SDS011;2170;48.794;9.182;2024-01-30T05:34:23;14.13;;;12.63;;
4313;SDS011;2170;48.794;9.182;2024-01-30T05:36:53;13.70;;;12.30;;
4313;SDS011;2170;48.794;9.182;2024-01-30T05:39:24;14.20;;;12.70;;
4313;SDS011;2170;48.794;9.182;2024-01-30T05:41:53;14.30;;;12.87;;
4313;SDS011;2170;48.794;9.182;2024-01-30T05:44:30;14.23;;;12.80;;
4313;SDS011;2170;48.794;9.182;2024-01-30T05:47:00;14.03;;;12.73;;
4313;SDS011;2170;48.794;9.182;2024-01-30T05:49:34;13.73;;;12.33;;
4313;SDS011;2170;48.794;9.182;2024-01-30T05:52:05;13.60;;;11.70;;
4313;SDS011;2170;48.794;9.182;2024-01-30T05:54:40;13.57;;;12.10;;
4313;SDS011;2170;48.794;9.182;2024-01-30T05:57:11;15.03;;;12.80;;
4313;SDS011;2170;48.794;9.182;2024-01-30T05:59:43;13.80;;;12.40;;
4313;SDS011;2170;48.794;9.182;2024-01-30T06:02:18;14.37;;;12.90;;
4313;SDS011;2170;48.794;9.182;2024-01-30T06:04:45;13.97;;;12.60;;
4313;SDS011;2170;48.794;9.182;2024-01-30T06:07:14;13.20;;;12.03;;
4313;SDS011;2170;48.794;9.182;2024-01-30T06:09:44;13.47;;;11.90;;
4313;SDS011;2170;48.794;9.182;2024-01-30T06:12:11;14.27;;;11.73;;
4313;SDS011;2170;48.794;9.182;2024-01-30T06:14:41;19.90;;;12.83;;
4313;SDS011;2170;48.794;9.182;2024-01-30T06:17:12;16.27;;;13.70;;
4313;SDS011;2170;48.794;9.182;2024-01-30T06:19:39;13.90;;;11.77;;
4313;SDS011;2170;48.794;9.182;2024-01-30T06:22:07;15.77;;;14.20;;
4313;SDS011;2170;48.794;9.182;2024-01-30T06:24:36;14.60;;;13.10;;
4313;SDS011;2170;48.794;9.182;2024-01-30T06:27:07;14.60;;;12.07;;
4313;SDS011;2170;48.794;9.182;2024-01-30T06:29:39;13.50;;;11.50;;
4313;SDS011;2170;48.794;9.182;2024-01-30T06:32:08;13.73;;;11.70;;
4313;SDS011;2170;48.794;9.182;2024-01-30T06:34:37;16.60;;;13.07;;
4313;SDS011;2170;48.794;9.182;2024-01-30T06:37:09;14.97;;;12.60;;
4313;SDS011;2170;48.794;9.182;2024-01-30T06:39:43;16.60;;;13.60;;
4313;SDS011;2170;48.794;9.182;2024-01-30T06:42:21;18.43;;;14.13;;
4313;SDS011;2170;48.794;9.182;2024-01-30T06:44:51;13.77;;;12.27;;
4313;SDS011;2170;48.794;9.182;2024-01-30T06:47:22;15.90;;;13.10;;
4313;SDS011;2170;48.794;9.182;2024-01-30T06:49:56;15.77;;;12.97;;
4313;SDS011;2170;48.794;9.182;2024-01-30T06:52:36;14.40;;;12.90;;
4313;SDS011;2170;48.794;9.182;2024-01-30T06:55:05;12.83;;;11.50;;
4313;SDS011;2170;48.794;9.182;2024-01-30T06:57:39;13.77;;;12.47;;
4313;SDS011;2170;48.794;9.182;2024-01-30T07:00:09;13.27;;;11.60;;
4313;SDS011;2170;48.794;9.182;2024-01-30T07:02:48;13.00;;;11.23;;
4313;SDS011;2170;48.794;9.182;2024-01-30T07:05:17;12.90;;;11.03;;
4313;SDS011;2170;48.794;9.182;2024-01-30T07:07:48;13.57;;;12.17;;
4313;SDS011;2170;48.794;9.182;2024-01-30T07:10:18;13.43;;;11.83;;
4313;SDS011;2170;48.794;9.182;2024-01-30T07:12:49;13.07;;;11.67;;
4313;SDS011;2170;48.794;9.182;2024-01-30T07:15:25;13.53;;;12.07;;
4313;SDS011;2170;48.794;9.182;2024-01-30T07:18:00;13.70;;;12.40;;
4313;SDS011;2170;48.794;9.182;2024-01-30T07:20:35;14.10;;;12.27;;
4313;SDS011;2170;48.794;9.182;2024-01-30T07:23:07;14.17;;;12.77;;
4313;SDS011;2170;48.794;9.182;2024-01-30T07:25:39;13.80;;;12.33;;
4313;SDS011;2170;48.794;9.182;2024-01-30T07:28:15;16.73;;;13.00;;
4313;SDS011;2170;48.794;9.182;2024-01-30T07:30:45;20.80;;;17.73;;
4313;SDS011;2170;48.794;9.182;2024-01-30T07:33:15;20.00;;;16.13;;
4313;SDS011;2170;48.794;9.182;2024-01-30T07:35:46;24.50;;;16.50;;
4313;SDS011;2170;48.794;9.182;2024-01-30T07:38:14;20.93;;;15.43;;
4313;SDS011;2170;48.794;9.182;2024-01-30T07:40:45;17.70;;;13.57;;
4313;SDS011;2170;48.794;9.182;2024-01-30T07:43:17;21.00;;;13.70;;
4313;SDS011;2170;48.794;9.182;2024-01-30T07:45:50;15.00;;;12.93;;
4313;SDS011;2170;48.794;9.182;2024-01-30T07:48:20;20.13;;;13.67;;
4313;SDS011;2170;48.794;9.182;2024-01-30T07:50:51;15.90;;;13.63;;
4313;SDS011;2170;48.794;9.182;2024-01-30T07:53:22;15.40;;;13.80;;
4313;SDS011;2170;48.794;9.182;2024-01-30T07:55:50;14.80;;;13.17;;
4313;SDS011;2170;48.794;9.182;2024-01-30T07:58:20;21.13;;;14.07;;
4313;SDS011;2170;48.794;9.182;2024-01-30T08:00:52;15.20;;;13.60;;
4313;SDS011;2170;48.794;9.182;2024-01-30T08:03:39;14.73;;;12.43;;
4313;SDS011;2170;48.794;9.182;2024-01-30T08:06:10;15.87;;;14.30;;
4313;SDS011;2170;48.794;9.182;2024-01-30T08:08:44;14.60;;;13.10;;
4313;SDS011;2170;48.794;9.182;2024-01-30T08:11:14;15.07;;;13.50;;
4313;SDS011;2170;48.794;9.182;2024-01-30T08:13:54;13.57;;;12.20;;
4313;SDS011;2170;48.794;9.182;2024-01-30T08:16:24;14.17;;;12.77;;
4313;SDS011;2170;48.794;9.182;2024-01-30T08:18:57;14.70;;;13.20;;
4313;SDS011;2170;48.794;9.182;2024-01-30T08:21:32;14.07;;;12.57;;
4313;SDS011;2170;48.794;9.182;2024-01-30T08:24:07;17.67;;;14.27;;
4313;SDS011;2170;48.794;9.182;2024-01-30T08:26:38;15.90;;;13.77;;
4313;SDS011;2170;48.794;9.182;2024-01-30T08:29:19;14.97;;;13.50;;
4313;SDS011;2170;48.794;9.182;2024-01-30T08:31:48;15.30;;;12.97;;
4313;SDS011;2170;48.794;9.182;2024-01-30T08:34:24;17.13;;;13.07;;
4313;SDS011;2170;48.794;9.182;2024-01-30T08:36:55;15.10;;;13.50;;
4313;SDS011;2170;48.794;9.182;2024-01-30T08:39:30;13.97;;;12.40;;
4313;SDS011;2170;48.794;9.182;2024-01-30T08:42:09;13.57;;;12.23;;
4313;SDS011;2170;48.794;9.182;2024-01-30T08:45:15;15.93;;;13.23;;
4313;SDS011;2170;48.794;9.182;2024-01-30T08:48:04;13.67;;;12.23;;
4313;SDS011;2170;48.794;9.182;2024-01-30T08:50:57;12.70;;;11.40;;
4313;SDS011;2170;48.794;9.182;2024-01-30T08:53:37;13.30;;;11.90;;
4313;SDS011;2170;48.794;9.182;2024-01-30T08:56:24;12.17;;;11.00;;
4313;SDS011;2170;48.794;9.182;2024-01-30T08:59:00;15.83;;;14.13;;
4313;SDS011;2170;48.794;9.182;2024-01-30T09:01:39;16.90;;;14.23;;
4313;SDS011;2170;48.794;9.182;2024-01-30T09:04:13;12.97;;;11.67;;
4313;SDS011;2170;48.794;9.182;2024-01-30T09:06:55;12.93;;;11.73;;
4313;SDS011;2170;48.794;9.182;2024-01-30T09:09:39;13.50;;;12.10;;
4313;SDS011;2170;48.794;9.182;2024-01-30T09:12:13;14.20;;;12.10;;
4313;SDS011;2170;48.794;9.182;2024-01-30T09:14:46;12.53;;;11.33;;
4313;SDS011;2170;48.794;9.182;2024-01-30T09:17:28;13.43;;;12.00;;
4313;SDS011;2170;48.794;9.182;2024-01-30T09:19:57;13.33;;;11.93;;
4313;SDS011;2170;48.794;9.182;2024-01-30T09:22:25;13.07;;;11.77;;
4313;SDS011;2170;48.794;9.182;2024-01-30T09:24:54;13.27;;;11.97;;
4313;SDS011;2170;48.794;9.182;2024-01-30T09:27:28;14.27;;;12.70;;
4313;SDS011;2170;48.794;9.182;2024-01-30T09:30:07;13.40;;;12.10;;
4313;SDS011;2170;48.794;9.182;2024-01-30T09:32:39;12.67;;;11.47;;
4313;SDS011;2170;48.794;9.182;2024-01-30T09:35:10;13.10;;;11.80;;
4313;SDS011;2170;48.794;9.182;2024-01-30T09:37:39;13.70;;;12.10;;
4313;SDS011;2170;48.794;9.182;2024-01-30T09:40:11;11.87;;;10.90;;
4313;SDS011;2170;48.794;9.182;2024-01-30T09:42:38;13.30;;;12.10;;
4313;SDS011;2170;48.794;9.182;2024-01-30T09:45:09;14.33;;;12.40;;
4313;SDS011;2170;48.794;9.182;2024-01-30T09:47:43;12.80;;;11.20;;
4313;SDS011;2170;48.794;9.182;2024-01-30T09:50:29;13.00;;;11.80;;
4313;SDS011;2170;48.794;9.182;2024-01-30T09:53:19;12.70;;;11.50;;
4313;SDS011;2170;48.794;9.182;2024-01-30T09:56:06;17.80;;;12.63;;
4313;SDS011;2170;48.794;9.182;2024-01-30T09:58:42;15.80;;;11.90;;
4313;SDS011;2170;48.794;9.182;2024-01-30T10:01:17;14.10;;;12.00;;
4313;SDS011;2170;48.794;9.182;2024-01-30T10:03:55;12.80;;;11.40;;
4313;SDS011;2170;48.794;9.182;2024-01-30T10:06:24;13.00;;;11.43;;
4313;SDS011;2170;48.794;9.182;2024-01-30T10:08:55;13.03;;;11.70;;
4313;SDS011;2170;48.794;9.182;2024-01-30T10:11:27;13.50;;;12.10;;
4313;SDS011;2170;48.794;9.182;2024-01-30T10:14:15;12.63;;;11.43;;
4313;SDS011;2170;48.794;9.182;2024-01-30T10:16:54;13.13;;;12.03;;
4313;SDS011;2170;48.794;9.182;2024-01-30T10:19:39;13.80;;;12.47;;
4313;SDS011;2170;48.794;9.182;2024-01-30T10:22:09;12.83;;;11.53;;
4313;SDS011;2170;48.794;9.182;2024-01-30T10:24:39;12.90;;;11.70;;
4313;SDS011;2170;48.794;9.182;2024-01-30T10:27:11;14.97;;;12.73;;
4313;SDS011;2170;48.794;9.182;2024-01-30T10:29:51;13.63;;;12.27;;
4313;SDS011;2170;48.794;9.182;2024-01-30T10:32:27;15.33;;;12.00;;
4313;SDS011;2170;48.794;9.182;2024-01-30T10:34:58;14.10;;;12.70;;
4313;SDS011;2170;48.794;9.182;2024-01-30T10:37:30;14.10;;;12.70;;
4313;SDS011;2170;48.794;9.182;2024-01-30T10:39:59;13.20;;;11.97;;
4313;SDS011;2170;48.794;9.182;2024-01-30T10:42:36;12.57;;;11.47;;
4313;SDS011;2170;48.794;9.182;2024-01-30T10:45:10;14.30;;;12.63;;
4313;SDS011;2170;48.794;9.182;2024-01-30T10:47:52;17.13;;;11.97;;
4313;SDS011;2170;48.794;9.182;2024-01-30T10:50:27;13.87;;;12.47;;
4313;SDS011;2170;48.794;9.182;2024-01-30T10:53:02;12.43;;;11.20;;
4313;SDS011;2170;48.794;9.182;2024-01-30T10:55:35;14.17;;;12.63;;
4313;SDS011;2170;48.794;9.182;2024-01-30T10:58:08;11.93;;;10.83;;
4313;SDS011;2170;48.794;9.182;2024-01-30T11:00:37;14.53;;;12.43;;
4313;SDS011;2170;48.794;9.182;2024-01-30T11:03:08;16.23;;;13.33;;
4313;SDS011;2170;48.794;9.182;2024-01-30T11:05:40;14.23;;;12.93;;
4313;SDS011;2170;48.794;9.182;2024-01-30T11:08:11;14.60;;;13.23;;
4313;SDS011;2170;48.794;9.182;2024-01-30T11:10:46;13.33;;;12.10;;
4313;SDS011;2170;48.794;9.182;2024-01-30T11:13:16;15.07;;;12.90;;
4313;SDS011;2170;48.794;9.182;2024-01-30T11:15:47;14.30;;;12.83;;
4313;SDS011;2170;48.794;9.182;2024-01-30T11:18:25;13.33;;;11.77;;
4313;SDS011;2170;48.794;9.182;2024-01-30T11:20:59;14.03;;;12.60;;
4313;SDS011;2170;48.794;9.182;2024-01-30T11:23:27;14.03;;;11.90;;
4313;SDS011;2170;48.794;9.182;2024-01-30T11:26:05;12.70;;;11.17;;
4313;SDS011;2170;48.794;9.182;2024-01-30T11:28:54;12.53;;;11.33;;
4313;SDS011;2170;48.794;9.182;2024-01-30T11:31:30;12.73;;;11.60;;
4313;SDS011;2170;48.794;9.182;2024-01-30T11:34:01;15.07;;;11.73;;
4313;SDS011;2170;48.794;9.182;2024-01-30T11:36:33;14.67;;;13.20;;
4313;SDS011;2170;48.794;9.182;2024-01-30T11:39:03;13.50;;;11.33;;
4313;SDS011;2170;48.794;9.182;2024-01-30T11:41:33;14.50;;;13.03;;
4313;SDS011;2170;48.794;9.182;2024-01-30T11:44:11;14.53;;;11.93;;
4313;SDS011;2170;48.794;9.182;2024-01-30T11:46:42;15.30;;;12.13;;
4313;SDS011;2170;48.794;9.182;2024-01-30T11:49:13;13.73;;;12.40;;
4313;SDS011;2170;48.794;9.182;2024-01-30T11:51:50;15.70;;;12.60;;
4313;SDS011;2170;48.794;9.182;2024-01-30T11:54:24;13.70;;;11.70;;
4313;SDS011;2170;48.794;9.182;2024-01-30T11:56:52;17.23;;;13.33;;
4313;SDS011;2170;48.794;9.182;2024-01-30T11:59:21;13.80;;;12.40;;
4313;SDS011;2170;48.794;9.182;2024-01-30T12:01:57;19.13;;;13.40;;
4313;SDS011;2170;48.794;9.182;2024-01-30T12:04:27;17.50;;;13.70;;
4313;SDS011;2170;48.794;9.182;2024-01-30T12:06:57;16.27;;;13.07;;
4313;SDS011;2170;48.794;9.182;2024-01-30T12:09:34;14.70;;;13.07;;
4313;SDS011;2170;48.794;9.182;2024-01-30T12:12:07;14.40;;;12.93;;
4313;SDS011;2170;48.794;9.182;2024-01-30T12:14:40;18.20;;;13.30;;
4313;SDS011;2170;48.794;9.182;2024-01-30T12:17:22;14.10;;;12.80;;
4313;SDS011;2170;48.794;9.182;2024-01-30T12:20:05;14.27;;;12.10;;
4313;SDS011;2170;48.794;9.182;2024-01-30T12:22:45;14.23;;;12.60;;
4313;SDS011;2170;48.794;9.182;2024-01-30T12:25:27;15.13;;;12.70;;
4313;SDS011;2170;48.794;9.182;2024-01-30T12:28:20;19.40;;;13.30;;
4313;SDS011;2170;48.794;9.182;2024-01-30T12:31:01;18.67;;;12.97;;
4313;SDS011;2170;48.794;9.182;2024-01-30T12:33:32;13.73;;;11.63;;
4313;SDS011;2170;48.794;9.182;2024-01-30T12:36:12;13.90;;;12.43;;
4313;SDS011;2170;48.794;9.182;2024-01-30T12:38:55;12.90;;;11.23;;
4313;SDS011;2170;48.794;9.182;2024-01-30T12:41:30;25.47;;;12.23;;
4313;SDS011;2170;48.794;9.182;2024-01-30T12:44:14;14.67;;;12.50;;
4313;SDS011;2170;48.794;9.182;2024-01-30T12:46:51;14.17;;;12.03;;
4313;SDS011;2170;48.794;9.182;2024-01-30T12:49:27;13.27;;;11.80;;
4313;SDS011;2170;48.794;9.182;2024-01-30T12:51:55;13.80;;;12.40;;
4313;SDS011;2170;48.794;9.182;2024-01-30T12:54:37;15.10;;;12.57;;
4313;SDS011;2170;48.794;9.182;2024-01-30T12:57:09;14.47;;;12.57;;
4313;SDS011;2170;48.794;9.182;2024-01-30T12:59:41;15.63;;;11.43;;
4313;SDS011;2170;48.794;9.182;2024-01-30T13:02:16;16.10;;;12.30;;
4313;SDS011;2170;48.794;9.182;2024-01-30T13:04:44;14.87;;;12.50;;
4313;SDS011;2170;48.794;9.182;2024-01-30T13:07:18;18.47;;;12.90;;
4313;SDS011;2170;48.794;9.182;2024-01-30T13:09:51;16.03;;;13.13;;
4313;SDS011;2170;48.794;9.182;2024-01-30T13:12:29;16.10;;;13.27;;
4313;SDS011;2170;48.794;9.182;2024-01-30T13:15:01;14.67;;;13.07;;
4313;SDS011;2170;48.794;9.182;2024-01-30T13:17:54;17.10;;;14.00;;
4313;SDS011;2170;48.794;9.182;2024-01-30T13:20:36;18.57;;;13.83;;
4313;SDS011;2170;48.794;9.182;2024-01-30T13:23:12;17.90;;;14.47;;
4313;SDS011;2170;48.794;9.182;2024-01-30T13:25:46;16.23;;;13.33;;
4313;SDS011;2170;48.794;9.182;2024-01-30T13:28:17;19.03;;;14.13;;
4313;SDS011;2170;48.794;9.182;2024-01-30T13:30:53;17.70;;;13.90;;
4313;SDS011;2170;48.794;9.182;2024-01-30T13:33:28;17.60;;;14.33;;
4313;SDS011;2170;48.794;9.182;2024-01-30T13:36:05;18.70;;;14.50;;
4313;SDS011;2170;48.794;9.182;2024-01-30T13:38:42;27.97;;;14.80;;
4313;SDS011;2170;48.794;9.182;2024-01-30T13:41:18;18.17;;;14.97;;
4313;SDS011;2170;48.794;9.182;2024-01-30T13:43:48;23.20;;;14.60;;
4313;SDS011;2170;48.794;9.182;2024-01-30T13:46:26;15.80;;;13.57;;
4313;SDS011;2170;48.794;9.182;2024-01-30T13:48:57;18.57;;;14.67;;
4313;SDS011;2170;48.794;9.182;2024-01-30T13:51:35;16.20;;;14.50;;
4313;SDS011;2170;48.794;9.182;2024-01-30T13:54:06;16.00;;;14.30;;
4313;SDS011;2170;48.794;9.182;2024-01-30T13:56:43;19.17;;;15.10;;
4313;SDS011;2170;48.794;9.182;2024-01-30T13:59:13;21.73;;;14.53;;
4313;SDS011;2170;48.794;9.182;2024-01-30T14:01:48;23.33;;;16.40;;
4313;SDS011;2170;48.794;9.182;2024-01-30T14:04:28;19.40;;;15.87;;
4313;SDS011;2170;48.794;9.182;2024-01-30T14:07:06;22.97;;;14.90;;
4313;SDS011;2170;48.794;9.182;2024-01-30T14:09:43;15.90;;;14.20;;
4313;SDS011;2170;48.794;9.182;2024-01-30T14:12:25;16.83;;;14.83;;
4313;SDS011;2170;48.794;9.182;2024-01-30T14:14:58;22.60;;;14.63;;
4313;SDS011;2170;48.794;9.182;2024-01-30T14:17:30;23.90;;;14.90;;
4313;SDS011;2170;48.794;9.182;2024-01-30T14:20:02;24.77;;;15.50;;
4313;SDS011;2170;48.794;9.182;2024-01-30T14:22:37;25.00;;;14.50;;
4313;SDS011;2170;48.794;9.182;2024-01-30T14:25:08;19.30;;;13.97;;
4313;SDS011;2170;48.794;9.182;2024-01-30T14:27:45;24.83;;;15.27;;
4313;SDS011;2170;48.794;9.182;2024-01-30T14:30:34;17.80;;;14.53;;
4313;SDS011;2170;48.794;9.182;2024-01-30T14:33:02;24.40;;;15.77;;
4313;SDS011;2170;48.794;9.182;2024-01-30T14:35:30;26.33;;;16.80;;
4313;SDS011;2170;48.794;9.182;2024-01-30T14:38:00;20.93;;;14.90;;
4313;SDS011;2170;48.794;9.182;2024-01-30T14:40:30;18.77;;;14.47;;
4313;SDS011;2170;48.794;9.182;2024-01-30T14:43:02;18.90;;;15.20;;
4313;SDS011;2170;48.794;9.182;2024-01-30T14:45:41;23.37;;;15.47;;
4313;SDS011;2170;48.794;9.182;2024-01-30T14:48:16;21.23;;;14.97;;
4313;SDS011;2170;48.794;9.182;2024-01-30T14:50:47;23.30;;;15.10;;
4313;SDS011;2170;48.794;9.182;2024-01-30T14:53:22;20.60;;;14.70;;
4313;SDS011;2170;48.794;9.182;2024-01-30T14:55:57;27.30;;;16.20;;
4313;SDS011;2170;48.794;9.182;2024-01-30T14:58:26;20.70;;;14.67;;
4313;SDS011;2170;48.794;9.182;2024-01-30T15:00:53;27.93;;;17.30;;
4313;SDS011;2170;48.794;9.182;2024-01-30T15:03:24;23.57;;;16.10;;
4313;SDS011;2170;48.794;9.182;2024-01-30T15:05:56;21.60;;;15.30;;
4313;SDS011;2170;48.794;9.182;2024-01-30T15:08:33;21.17;;;15.47;;
4313;SDS011;2170;48.794;9.182;2024-01-30T15:11:01;19.37;;;16.40;;
4313;SDS011;2170;48.794;9.182;2024-01-30T15:13:33;20.07;;;17.97;;
4313;SDS011;2170;48.794;9.182;2024-01-30T15:16:02;19.80;;;16.27;;
4313;SDS011;2170;48.794;9.182;2024-01-30T15:18:32;25.23;;;15.30;;
4313;SDS011;2170;48.794;9.182;2024-01-30T15:21:06;65.87;;;55.40;;